sensor_id;sensor_type;location;lat;lon;timestamp;temperature;humidity
16174;DHT22;14031;50.158;8.626;2022-10-23T00:02:18;13.80;99.90
16174;DHT22;14031;50.158;8.626;2022-10-23T00:04:49;13.70;99.90
16174;DHT22;14031;50.158;8.626;2022-10-23T00:07:16;13.70;99.90
16174;DHT22;14031;50.158;8.626;2022-10-23T00:09:43;13.70;99.90
16174;DHT22;14031;50.158;8.626;2022-10-23T00:12:10;13.80;99.90
16174;DHT22;14031;50.158;8.626;2022-10-23T00:14:39;13.70;99.90
16174;DHT22;14031;50.158;8.626;2022-10-23T00:17:06;13.70;99.90
16174;DHT22;14031;50.158;8.626;2022-10-23T00:19:35;13.70;99.90
16174;DHT22;14031;50.158;8.626;2022-10-23T00:22:01;13.70;99.90
16174;DHT22;14031;50.158;8.626;2022-10-23T00:24:28;13.60;99.90
16174;DHT22;14031;50.158;8.626;2022-10-23T00:26:55;13.70;99.90
16174;DHT22;14031;50.158;8.626;2022-10-23T00:29:22;13.60;99.90
16174;DHT22;14031;50.158;8.626;2022-10-23T00:31:51;13.50;99.90
16174;DHT22;14031;50.158;8.626;2022-10-23T00:34:18;13.60;99.90
16174;DHT22;14031;50.158;8.626;2022-10-23T00:36:44;13.50;99.90
16174;DHT22;14031;50.158;8.626;2022-10-23T00:39:11;13.50;99.90
16174;DHT22;14031;50.158;8.626;2022-10-23T00:41:38;13.60;99.90
16174;DHT22;14031;50.158;8.626;2022-10-23T00:44:07;13.50;99.90
16174;DHT22;14031;50.158;8.626;2022-10-23T00:46:35;13.50;99.90
16174;DHT22;14031;50.158;8.626;2022-10-23T00:49:04;13.50;99.90
16174;DHT22;14031;50.158;8.626;2022-10-23T00:51:35;13.50;99.90
16174;DHT22;14031;50.158;8.626;2022-10-23T00:54:03;13.50;99.90
16174;DHT22;14031;50.158;8.626;2022-10-23T00:56:32;13.40;99.90
16174;DHT22;14031;50.158;8.626;2022-10-23T00:59:02;13.40;99.90
16174;DHT22;14031;50.158;8.626;2022-10-23T01:01:29;13.40;99.90
16174;DHT22;14031;50.158;8.626;2022-10-23T01:03:56;13.40;99.90
16174;DHT22;14031;50.158;8.626;2022-10-23T01:06:32;13.40;99.90
16174;DHT22;14031;50.158;8.626;2022-10-23T01:09:07;13.40;99.90
16174;DHT22;14031;50.158;8.626;2022-10-23T01:11:39;13.40;99.90
16174;DHT22;14031;50.158;8.626;2022-10-23T01:14:15;13.30;99.90
16174;DHT22;14031;50.158;8.626;2022-10-23T01:16:50;13.30;99.90
16174;DHT22;14031;50.158;8.626;2022-10-23T01:19:24;13.30;99.90
16174;DHT22;14031;50.158;8.626;2022-10-23T01:22:01;13.30;99.90
16174;DHT22;14031;50.158;8.626;2022-10-23T01:24:44;13.20;99.90
16174;DHT22;14031;50.158;8.626;2022-10-23T01:27:19;13.20;99.90
16174;DHT22;14031;50.158;8.626;2022-10-23T01:29:51;13.20;99.90
16174;DHT22;14031;50.158;8.626;2022-10-23T01:32:29;13.20;99.90
16174;DHT22;14031;50.158;8.626;2022-10-23T01:35:03;13.20;99.90
16174;DHT22;14031;50.158;8.626;2022-10-23T01:37:38;13.20;99.90
16174;DHT22;14031;50.158;8.626;2022-10-23T01:40:09;13.20;99.90
16174;DHT22;14031;50.158;8.626;2022-10-23T01:42:43;13.20;99.90
16174;DHT22;14031;50.158;8.626;2022-10-23T01:45:17;13.10;99.90
16174;DHT22;14031;50.158;8.626;2022-10-23T01:47:44;13.10;99.90
16174;DHT22;14031;50.158;8.626;2022-10-23T01:50:14;13.10;99.90
16174;DHT22;14031;50.158;8.626;2022-10-23T01:52:42;13.10;99.90
16174;DHT22;14031;50.158;8.626;2022-10-23T01:55:11;13.10;99.90
16174;DHT22;14031;50.158;8.626;2022-10-23T01:57:41;13.00;99.90
16174;DHT22;14031;50.158;8.626;2022-10-23T02:00:12;13.00;99.90
16174;DHT22;14031;50.158;8.626;2022-10-23T02:02:40;13.00;99.90
16174;DHT22;14031;50.158;8.626;2022-10-23T02:05:14;13.00;99.90
16174;DHT22;14031;50.158;8.626;2022-10-23T02:07:41;13.00;99.90
16174;DHT22;14031;50.158;8.626;2022-10-23T02:10:12;13.00;99.90
16174;DHT22;14031;50.158;8.626;2022-10-23T02:12:46;13.10;99.90
16174;DHT22;14031;50.158;8.626;2022-10-23T02:15:20;13.00;99.90
16174;DHT22;14031;50.158;8.626;2022-10-23T02:17:59;13.00;99.90
16174;DHT22;14031;50.158;8.626;2022-10-23T02:20:34;13.00;99.90
16174;DHT22;14031;50.158;8.626;2022-10-23T02:23:11;12.90;99.90
16174;DHT22;14031;50.158;8.626;2022-10-23T02:25:45;12.90;99.90
16174;DHT22;14031;50.158;8.626;2022-10-23T02:28:17;12.80;99.90
16174;DHT22;14031;50.158;8.626;2022-10-23T02:30:47;13.00;99.90
16174;DHT22;14031;50.158;8.626;2022-10-23T02:33:18;12.90;99.90
16174;DHT22;14031;50.158;8.626;2022-10-23T02:35:46;12.90;99.90
16174;DHT22;14031;50.158;8.626;2022-10-23T02:38:29;12.90;99.90
16174;DHT22;14031;50.158;8.626;2022-10-23T02:41:12;12.90;99.90
16174;DHT22;14031;50.158;8.626;2022-10-23T02:43:53;12.90;99.90
16174;DHT22;14031;50.158;8.626;2022-10-23T02:46:25;12.90;99.90
16174;DHT22;14031;50.158;8.626;2022-10-23T02:48:59;12.90;99.90
16174;DHT22;14031;50.158;8.626;2022-10-23T02:51:32;12.90;99.90
16174;DHT22;14031;50.158;8.626;2022-10-23T02:54:05;12.90;99.90
16174;DHT22;14031;50.158;8.626;2022-10-23T02:56:38;12.80;99.90
16174;DHT22;14031;50.158;8.626;2022-10-23T02:59:15;12.80;99.90
16174;DHT22;14031;50.158;8.626;2022-10-23T03:01:49;12.90;99.90
16174;DHT22;14031;50.158;8.626;2022-10-23T03:04:18;13.00;99.90
16174;DHT22;14031;50.158;8.626;2022-10-23T03:06:48;12.80;99.90
16174;DHT22;14031;50.158;8.626;2022-10-23T03:09:18;12.90;99.90
16174;DHT22;14031;50.158;8.626;2022-10-23T03:11:45;12.90;99.90
16174;DHT22;14031;50.158;8.626;2022-10-23T03:14:13;12.80;99.90
16174;DHT22;14031;50.158;8.626;2022-10-23T03:16:40;12.90;99.90
16174;DHT22;14031;50.158;8.626;2022-10-23T03:19:07;12.90;99.90
16174;DHT22;14031;50.158;8.626;2022-10-23T03:21:33;12.80;99.90
16174;DHT22;14031;50.158;8.626;2022-10-23T03:24:00;12.80;99.90
16174;DHT22;14031;50.158;8.626;2022-10-23T03:26:29;12.80;99.90
16174;DHT22;14031;50.158;8.626;2022-10-23T03:28:56;12.80;99.90
16174;DHT22;14031;50.158;8.626;2022-10-23T03:31:24;12.80;99.90
16174;DHT22;14031;50.158;8.626;2022-10-23T03:33:51;12.80;99.90
16174;DHT22;14031;50.158;8.626;2022-10-23T03:36:17;12.80;99.90
16174;DHT22;14031;50.158;8.626;2022-10-23T03:38:44;12.80;99.90
16174;DHT22;14031;50.158;8.626;2022-10-23T03:41:11;12.80;99.90
16174;DHT22;14031;50.158;8.626;2022-10-23T03:43:38;12.90;99.90
16174;DHT22;14031;50.158;8.626;2022-10-23T03:46:06;12.80;99.90
16174;DHT22;14031;50.158;8.626;2022-10-23T03:48:38;12.80;99.90
16174;DHT22;14031;50.158;8.626;2022-10-23T03:51:06;12.80;99.90
16174;DHT22;14031;50.158;8.626;2022-10-23T03:53:33;12.80;99.90
16174;DHT22;14031;50.158;8.626;2022-10-23T03:56:00;12.80;99.90
16174;DHT22;14031;50.158;8.626;2022-10-23T03:58:27;12.70;99.90
16174;DHT22;14031;50.158;8.626;2022-10-23T04:00:55;12.70;99.90
16174;DHT22;14031;50.158;8.626;2022-10-23T04:03:22;12.70;99.90
16174;DHT22;14031;50.158;8.626;2022-10-23T04:05:50;12.80;99.90
16174;DHT22;14031;50.158;8.626;2022-10-23T04:08:19;12.60;99.90
16174;DHT22;14031;50.158;8.626;2022-10-23T04:10:48;12.60;99.90
16174;DHT22;14031;50.158;8.626;2022-10-23T04:13:16;12.60;99.90
16174;DHT22;14031;50.158;8.626;2022-10-23T04:15:48;12.60;99.90
16174;DHT22;14031;50.158;8.626;2022-10-23T04:18:18;12.60;99.90
16174;DHT22;14031;50.158;8.626;2022-10-23T04:20:46;12.70;99.90
16174;DHT22;14031;50.158;8.626;2022-10-23T04:23:17;12.80;99.90
16174;DHT22;14031;50.158;8.626;2022-10-23T04:25:47;12.60;99.90
16174;DHT22;14031;50.158;8.626;2022-10-23T04:28:15;12.60;99.90
16174;DHT22;14031;50.158;8.626;2022-10-23T04:30:42;12.60;99.90
16174;DHT22;14031;50.158;8.626;2022-10-23T04:33:09;12.60;99.90
16174;DHT22;14031;50.158;8.626;2022-10-23T04:35:36;12.60;99.90
16174;DHT22;14031;50.158;8.626;2022-10-23T04:38:02;12.60;99.90
16174;DHT22;14031;50.158;8.626;2022-10-23T04:40:36;12.60;99.90
16174;DHT22;14031;50.158;8.626;2022-10-23T04:43:03;12.60;99.90
16174;DHT22;14031;50.158;8.626;2022-10-23T04:45:30;12.50;99.90
16174;DHT22;14031;50.158;8.626;2022-10-23T04:47:57;12.50;99.90
16174;DHT22;14031;50.158;8.626;2022-10-23T04:50:24;12.50;99.90
16174;DHT22;14031;50.158;8.626;2022-10-23T04:52:53;12.50;99.90
16174;DHT22;14031;50.158;8.626;2022-10-23T04:55:20;12.50;99.90
16174;DHT22;14031;50.158;8.626;2022-10-23T04:57:48;12.60;99.90
16174;DHT22;14031;50.158;8.626;2022-10-23T05:00:15;12.60;99.90
16174;DHT22;14031;50.158;8.626;2022-10-23T05:02:42;12.50;99.90
16174;DHT22;14031;50.158;8.626;2022-10-23T05:05:09;12.50;99.90
16174;DHT22;14031;50.158;8.626;2022-10-23T05:07:37;12.50;99.90
16174;DHT22;14031;50.158;8.626;2022-10-23T05:10:04;12.50;99.90
16174;DHT22;14031;50.158;8.626;2022-10-23T05:12:31;12.50;99.90
16174;DHT22;14031;50.158;8.626;2022-10-23T05:15:01;12.50;99.90
16174;DHT22;14031;50.158;8.626;2022-10-23T05:17:32;12.50;99.90
16174;DHT22;14031;50.158;8.626;2022-10-23T05:20:03;12.50;99.90
16174;DHT22;14031;50.158;8.626;2022-10-23T05:22:34;12.40;99.90
16174;DHT22;14031;50.158;8.626;2022-10-23T05:25:03;12.50;99.90
16174;DHT22;14031;50.158;8.626;2022-10-23T05:27:30;12.40;99.90
16174;DHT22;14031;50.158;8.626;2022-10-23T05:29:58;12.40;99.90
16174;DHT22;14031;50.158;8.626;2022-10-23T05:32:30;12.40;99.90
16174;DHT22;14031;50.158;8.626;2022-10-23T05:34:58;12.30;99.90
16174;DHT22;14031;50.158;8.626;2022-10-23T05:37:26;12.50;99.90
16174;DHT22;14031;50.158;8.626;2022-10-23T05:39:53;12.30;99.90
16174;DHT22;14031;50.158;8.626;2022-10-23T05:42:20;12.40;99.90
16174;DHT22;14031;50.158;8.626;2022-10-23T05:44:49;12.30;99.90
16174;DHT22;14031;50.158;8.626;2022-10-23T05:47:17;12.30;99.90
16174;DHT22;14031;50.158;8.626;2022-10-23T05:49:49;12.30;99.90
16174;DHT22;14031;50.158;8.626;2022-10-23T05:52:16;12.30;99.90
16174;DHT22;14031;50.158;8.626;2022-10-23T05:54:54;12.30;99.90
16174;DHT22;14031;50.158;8.626;2022-10-23T05:57:21;12.20;99.90
16174;DHT22;14031;50.158;8.626;2022-10-23T05:59:48;12.20;99.90
16174;DHT22;14031;50.158;8.626;2022-10-23T06:02:14;12.20;99.90
16174;DHT22;14031;50.158;8.626;2022-10-23T06:04:45;12.20;99.90
16174;DHT22;14031;50.158;8.626;2022-10-23T06:07:12;12.20;99.90
16174;DHT22;14031;50.158;8.626;2022-10-23T06:09:38;12.20;99.90
16174;DHT22;14031;50.158;8.626;2022-10-23T06:12:08;12.20;99.90
16174;DHT22;14031;50.158;8.626;2022-10-23T06:14:35;12.20;99.90
16174;DHT22;14031;50.158;8.626;2022-10-23T06:17:02;12.30;99.90
16174;DHT22;14031;50.158;8.626;2022-10-23T06:19:30;12.30;99.90
16174;DHT22;14031;50.158;8.626;2022-10-23T06:21:58;12.20;99.90
16174;DHT22;14031;50.158;8.626;2022-10-23T06:24:25;12.20;99.90
16174;DHT22;14031;50.158;8.626;2022-10-23T06:26:51;12.30;99.90
16174;DHT22;14031;50.158;8.626;2022-10-23T06:29:18;12.30;99.90
16174;DHT22;14031;50.158;8.626;2022-10-23T06:31:45;12.20;99.90
16174;DHT22;14031;50.158;8.626;2022-10-23T06:34:12;12.30;99.90
16174;DHT22;14031;50.158;8.626;2022-10-23T06:36:39;12.30;99.90
16174;DHT22;14031;50.158;8.626;2022-10-23T06:39:10;12.20;99.90
16174;DHT22;14031;50.158;8.626;2022-10-23T06:41:37;12.30;99.90
16174;DHT22;14031;50.158;8.626;2022-10-23T06:44:06;12.30;99.90
16174;DHT22;14031;50.158;8.626;2022-10-23T06:46:34;12.30;99.90
16174;DHT22;14031;50.158;8.626;2022-10-23T06:49:01;12.40;99.90
16174;DHT22;14031;50.158;8.626;2022-10-23T06:51:28;12.30;99.90
16174;DHT22;14031;50.158;8.626;2022-10-23T06:53:56;12.20;99.90
16174;DHT22;14031;50.158;8.626;2022-10-23T06:56:24;12.30;99.90
16174;DHT22;14031;50.158;8.626;2022-10-23T06:58:53;12.30;99.90
16174;DHT22;14031;50.158;8.626;2022-10-23T07:01:20;12.30;99.90
16174;DHT22;14031;50.158;8.626;2022-10-23T07:03:47;12.40;99.90
16174;DHT22;14031;50.158;8.626;2022-10-23T07:06:14;12.40;99.90
16174;DHT22;14031;50.158;8.626;2022-10-23T07:08:41;12.40;99.90
16174;DHT22;14031;50.158;8.626;2022-10-23T07:11:10;12.40;99.90
16174;DHT22;14031;50.158;8.626;2022-10-23T07:13:39;12.40;99.90
16174;DHT22;14031;50.158;8.626;2022-10-23T07:16:11;12.50;99.90
16174;DHT22;14031;50.158;8.626;2022-10-23T07:18:38;12.50;99.90
16174;DHT22;14031;50.158;8.626;2022-10-23T07:21:05;12.50;99.90
16174;DHT22;14031;50.158;8.626;2022-10-23T07:23:34;12.60;99.90
16174;DHT22;14031;50.158;8.626;2022-10-23T07:26:04;12.50;99.90
16174;DHT22;14031;50.158;8.626;2022-10-23T07:28:31;12.60;99.90
16174;DHT22;14031;50.158;8.626;2022-10-23T07:30:59;12.50;99.90
16174;DHT22;14031;50.158;8.626;2022-10-23T07:33:26;12.70;99.90
16174;DHT22;14031;50.158;8.626;2022-10-23T07:35:52;12.70;99.90
16174;DHT22;14031;50.158;8.626;2022-10-23T07:38:19;12.70;99.90
16174;DHT22;14031;50.158;8.626;2022-10-23T07:40:46;12.80;99.90
16174;DHT22;14031;50.158;8.626;2022-10-23T07:43:13;12.80;99.90
16174;DHT22;14031;50.158;8.626;2022-10-23T07:45:47;12.80;99.90
16174;DHT22;14031;50.158;8.626;2022-10-23T07:48:15;12.90;99.90
16174;DHT22;14031;50.158;8.626;2022-10-23T07:50:42;12.90;99.90
16174;DHT22;14031;50.158;8.626;2022-10-23T07:53:17;12.90;99.90
16174;DHT22;14031;50.158;8.626;2022-10-23T07:55:53;13.00;99.90
16174;DHT22;14031;50.158;8.626;2022-10-23T07:58:20;13.10;99.90
16174;DHT22;14031;50.158;8.626;2022-10-23T08:00:54;13.10;99.90
16174;DHT22;14031;50.158;8.626;2022-10-23T08:03:24;13.20;99.90
16174;DHT22;14031;50.158;8.626;2022-10-23T08:05:51;13.10;99.90
16174;DHT22;14031;50.158;8.626;2022-10-23T08:08:18;13.30;99.90
16174;DHT22;14031;50.158;8.626;2022-10-23T08:10:49;13.30;99.90
16174;DHT22;14031;50.158;8.626;2022-10-23T08:13:19;13.40;99.90
16174;DHT22;14031;50.158;8.626;2022-10-23T08:15:47;13.50;99.90
16174;DHT22;14031;50.158;8.626;2022-10-23T08:18:15;13.60;99.90
16174;DHT22;14031;50.158;8.626;2022-10-23T08:20:44;13.60;99.90
16174;DHT22;14031;50.158;8.626;2022-10-23T08:23:12;13.70;99.90
16174;DHT22;14031;50.158;8.626;2022-10-23T08:25:41;13.80;99.90
16174;DHT22;14031;50.158;8.626;2022-10-23T08:28:11;13.90;99.90
16174;DHT22;14031;50.158;8.626;2022-10-23T08:30:39;14.00;99.90
16174;DHT22;14031;50.158;8.626;2022-10-23T08:33:06;14.00;99.90
16174;DHT22;14031;50.158;8.626;2022-10-23T08:35:35;14.00;99.90
16174;DHT22;14031;50.158;8.626;2022-10-23T08:38:03;14.10;99.90
16174;DHT22;14031;50.158;8.626;2022-10-23T08:40:31;14.10;99.90
16174;DHT22;14031;50.158;8.626;2022-10-23T08:43:05;14.20;99.90
16174;DHT22;14031;50.158;8.626;2022-10-23T08:45:42;14.20;99.90
16174;DHT22;14031;50.158;8.626;2022-10-23T08:48:14;14.30;99.90
16174;DHT22;14031;50.158;8.626;2022-10-23T08:50:44;14.30;99.90
16174;DHT22;14031;50.158;8.626;2022-10-23T08:53:19;14.40;99.90
16174;DHT22;14031;50.158;8.626;2022-10-23T08:55:54;14.50;99.90
16174;DHT22;14031;50.158;8.626;2022-10-23T08:58:26;14.50;99.90
16174;DHT22;14031;50.158;8.626;2022-10-23T09:00:57;14.60;99.90
16174;DHT22;14031;50.158;8.626;2022-10-23T09:03:24;14.60;99.90
16174;DHT22;14031;50.158;8.626;2022-10-23T09:06:00;14.70;99.90
16174;DHT22;14031;50.158;8.626;2022-10-23T09:08:42;14.70;99.90
16174;DHT22;14031;50.158;8.626;2022-10-23T09:11:14;14.80;99.90
16174;DHT22;14031;50.158;8.626;2022-10-23T09:17:02;14.90;99.90
16174;DHT22;14031;50.158;8.626;2022-10-23T09:19:32;15.00;99.90
16174;DHT22;14031;50.158;8.626;2022-10-23T09:21:59;15.00;99.90
16174;DHT22;14031;50.158;8.626;2022-10-23T09:24:29;15.10;99.90
16174;DHT22;14031;50.158;8.626;2022-10-23T09:26:58;15.10;99.90
16174;DHT22;14031;50.158;8.626;2022-10-23T09:29:27;15.20;99.90
16174;DHT22;14031;50.158;8.626;2022-10-23T09:31:56;15.20;99.90
16174;DHT22;14031;50.158;8.626;2022-10-23T09:34:26;15.30;99.90
16174;DHT22;14031;50.158;8.626;2022-10-23T09:36:57;15.30;99.90
16174;DHT22;14031;50.158;8.626;2022-10-23T09:39:28;15.40;99.90
16174;DHT22;14031;50.158;8.626;2022-10-23T09:41:56;15.40;99.90
16174;DHT22;14031;50.158;8.626;2022-10-23T09:44:24;15.50;99.90
16174;DHT22;14031;50.158;8.626;2022-10-23T09:46:53;15.50;99.90
16174;DHT22;14031;50.158;8.626;2022-10-23T09:49:22;15.60;99.90
16174;DHT22;14031;50.158;8.626;2022-10-23T09:52:00;15.60;99.90
16174;DHT22;14031;50.158;8.626;2022-10-23T09:54:30;15.70;99.90
16174;DHT22;14031;50.158;8.626;2022-10-23T09:57:01;15.80;99.90
16174;DHT22;14031;50.158;8.626;2022-10-23T09:59:30;15.80;99.90
16174;DHT22;14031;50.158;8.626;2022-10-23T10:01:59;15.90;99.90
16174;DHT22;14031;50.158;8.626;2022-10-23T10:04:33;15.90;99.90
16174;DHT22;14031;50.158;8.626;2022-10-23T10:07:01;15.90;99.90
16174;DHT22;14031;50.158;8.626;2022-10-23T10:09:30;16.00;99.90
16174;DHT22;14031;50.158;8.626;2022-10-23T10:12:06;16.10;99.90
16174;DHT22;14031;50.158;8.626;2022-10-23T10:14:52;16.10;99.90
16174;DHT22;14031;50.158;8.626;2022-10-23T10:17:28;16.20;99.90
16174;DHT22;14031;50.158;8.626;2022-10-23T10:20:05;16.40;99.90
16174;DHT22;14031;50.158;8.626;2022-10-23T10:22:41;16.40;99.90
16174;DHT22;14031;50.158;8.626;2022-10-23T10:25:15;16.50;99.90
16174;DHT22;14031;50.158;8.626;2022-10-23T10:27:51;16.60;99.90
16174;DHT22;14031;50.158;8.626;2022-10-23T10:30:22;16.70;99.90
16174;DHT22;14031;50.158;8.626;2022-10-23T10:32:53;16.70;99.90
16174;DHT22;14031;50.158;8.626;2022-10-23T10:35:31;16.60;99.90
16174;DHT22;14031;50.158;8.626;2022-10-23T10:38:21;16.60;99.90
16174;DHT22;14031;50.158;8.626;2022-10-23T10:41:29;16.60;99.90
16174;DHT22;14031;50.158;8.626;2022-10-23T10:44:20;16.60;99.90
16174;DHT22;14031;50.158;8.626;2022-10-23T10:46:52;16.60;99.90
16174;DHT22;14031;50.158;8.626;2022-10-23T10:49:27;16.60;99.90
16174;DHT22;14031;50.158;8.626;2022-10-23T10:52:07;16.60;99.90
16174;DHT22;14031;50.158;8.626;2022-10-23T10:54:42;16.60;99.90
16174;DHT22;14031;50.158;8.626;2022-10-23T10:57:28;16.60;99.90
16174;DHT22;14031;50.158;8.626;2022-10-23T11:00:00;16.70;99.90
16174;DHT22;14031;50.158;8.626;2022-10-23T11:02:29;16.70;99.90
16174;DHT22;14031;50.158;8.626;2022-10-23T11:05:04;16.70;99.90
16174;DHT22;14031;50.158;8.626;2022-10-23T11:07:38;16.60;99.90
16174;DHT22;14031;50.158;8.626;2022-10-23T11:10:14;16.60;99.90
16174;DHT22;14031;50.158;8.626;2022-10-23T11:12:44;16.50;99.90
16174;DHT22;14031;50.158;8.626;2022-10-23T11:15:13;16.40;99.90
16174;DHT22;14031;50.158;8.626;2022-10-23T11:17:44;16.40;99.90
16174;DHT22;14031;50.158;8.626;2022-10-23T11:20:25;16.40;99.90
16174;DHT22;14031;50.158;8.626;2022-10-23T11:22:57;16.40;99.90
16174;DHT22;14031;50.158;8.626;2022-10-23T11:25:53;16.40;99.90
16174;DHT22;14031;50.158;8.626;2022-10-23T11:28:36;16.50;99.90
16174;DHT22;14031;50.158;8.626;2022-10-23T11:31:17;16.60;99.90
16174;DHT22;14031;50.158;8.626;2022-10-23T11:34:11;16.70;99.90
16174;DHT22;14031;50.158;8.626;2022-10-23T11:36:45;16.70;99.90
16174;DHT22;14031;50.158;8.626;2022-10-23T11:39:20;16.70;99.90
16174;DHT22;14031;50.158;8.626;2022-10-23T11:41:50;16.70;99.90
16174;DHT22;14031;50.158;8.626;2022-10-23T11:44:41;16.80;99.90
16174;DHT22;14031;50.158;8.626;2022-10-23T11:47:30;16.80;99.90
16174;DHT22;14031;50.158;8.626;2022-10-23T11:50:29;16.90;99.90
16174;DHT22;14031;50.158;8.626;2022-10-23T11:53:04;17.00;99.90
16174;DHT22;14031;50.158;8.626;2022-10-23T11:55:36;17.10;99.90
16174;DHT22;14031;50.158;8.626;2022-10-23T11:58:20;17.10;99.90
16174;DHT22;14031;50.158;8.626;2022-10-23T12:00:56;17.10;99.90
16174;DHT22;14031;50.158;8.626;2022-10-23T12:03:27;17.20;99.90
16174;DHT22;14031;50.158;8.626;2022-10-23T12:05:58;17.30;99.90
16174;DHT22;14031;50.158;8.626;2022-10-23T12:08:28;17.30;99.90
16174;DHT22;14031;50.158;8.626;2022-10-23T12:10:55;17.50;99.90
16174;DHT22;14031;50.158;8.626;2022-10-23T12:13:29;17.70;99.90
16174;DHT22;14031;50.158;8.626;2022-10-23T12:15:57;17.90;99.90
16174;DHT22;14031;50.158;8.626;2022-10-23T12:18:24;18.10;99.90
16174;DHT22;14031;50.158;8.626;2022-10-23T12:20:53;18.40;99.90
16174;DHT22;14031;50.158;8.626;2022-10-23T12:23:45;18.60;99.90
16174;DHT22;14031;50.158;8.626;2022-10-23T12:26:25;18.70;99.90
16174;DHT22;14031;50.158;8.626;2022-10-23T12:29:00;18.90;99.90
16174;DHT22;14031;50.158;8.626;2022-10-23T12:31:40;19.10;99.90
16174;DHT22;14031;50.158;8.626;2022-10-23T12:34:29;19.10;99.90
16174;DHT22;14031;50.158;8.626;2022-10-23T12:39:53;19.30;99.90
16174;DHT22;14031;50.158;8.626;2022-10-23T12:42:22;19.40;99.90
16174;DHT22;14031;50.158;8.626;2022-10-23T12:44:57;19.40;99.90
16174;DHT22;14031;50.158;8.626;2022-10-23T12:47:26;19.50;99.90
16174;DHT22;14031;50.158;8.626;2022-10-23T12:49:54;19.50;99.90
16174;DHT22;14031;50.158;8.626;2022-10-23T12:52:21;19.60;99.90
16174;DHT22;14031;50.158;8.626;2022-10-23T12:54:49;19.70;99.90
16174;DHT22;14031;50.158;8.626;2022-10-23T12:57:19;19.80;99.90
16174;DHT22;14031;50.158;8.626;2022-10-23T12:59:49;19.90;99.90
16174;DHT22;14031;50.158;8.626;2022-10-23T13:02:23;19.90;99.90
16174;DHT22;14031;50.158;8.626;2022-10-23T13:04:53;19.90;99.90
16174;DHT22;14031;50.158;8.626;2022-10-23T13:07:22;19.90;99.90
16174;DHT22;14031;50.158;8.626;2022-10-23T13:09:54;20.00;99.90
16174;DHT22;14031;50.158;8.626;2022-10-23T13:12:23;20.00;99.90
16174;DHT22;14031;50.158;8.626;2022-10-23T13:14:57;19.90;99.90
16174;DHT22;14031;50.158;8.626;2022-10-23T13:17:33;19.80;99.90
16174;DHT22;14031;50.158;8.626;2022-10-23T13:20:19;19.80;99.90
16174;DHT22;14031;50.158;8.626;2022-10-23T13:22:49;19.70;99.90
16174;DHT22;14031;50.158;8.626;2022-10-23T13:25:21;19.70;99.90
16174;DHT22;14031;50.158;8.626;2022-10-23T13:27:48;19.70;99.90
16174;DHT22;14031;50.158;8.626;2022-10-23T13:30:28;19.70;99.90
16174;DHT22;14031;50.158;8.626;2022-10-23T13:32:58;19.70;99.90
16174;DHT22;14031;50.158;8.626;2022-10-23T13:35:26;19.60;99.90
16174;DHT22;14031;50.158;8.626;2022-10-23T13:37:53;19.60;99.90
16174;DHT22;14031;50.158;8.626;2022-10-23T13:40:22;19.70;99.90
16174;DHT22;14031;50.158;8.626;2022-10-23T13:42:51;19.70;99.90
16174;DHT22;14031;50.158;8.626;2022-10-23T13:45:22;19.70;99.90
16174;DHT22;14031;50.158;8.626;2022-10-23T13:47:49;19.80;99.90
16174;DHT22;14031;50.158;8.626;2022-10-23T13:50:17;19.80;99.90
16174;DHT22;14031;50.158;8.626;2022-10-23T13:52:45;19.80;99.90
16174;DHT22;14031;50.158;8.626;2022-10-23T13:55:19;19.80;99.90
16174;DHT22;14031;50.158;8.626;2022-10-23T13:57:45;19.90;99.90
16174;DHT22;14031;50.158;8.626;2022-10-23T14:00:13;19.80;99.90
16174;DHT22;14031;50.158;8.626;2022-10-23T14:02:40;19.80;99.90
16174;DHT22;14031;50.158;8.626;2022-10-23T14:05:07;19.80;99.90
16174;DHT22;14031;50.158;8.626;2022-10-23T14:07:34;19.70;99.90
16174;DHT22;14031;50.158;8.626;2022-10-23T14:10:03;19.70;99.90
16174;DHT22;14031;50.158;8.626;2022-10-23T14:12:30;19.70;99.90
16174;DHT22;14031;50.158;8.626;2022-10-23T14:15:04;19.70;99.90
16174;DHT22;14031;50.158;8.626;2022-10-23T14:17:31;19.70;99.90
16174;DHT22;14031;50.158;8.626;2022-10-23T14:19:59;19.70;99.90
16174;DHT22;14031;50.158;8.626;2022-10-23T14:22:26;19.70;99.90
16174;DHT22;14031;50.158;8.626;2022-10-23T14:24:53;19.60;99.90
16174;DHT22;14031;50.158;8.626;2022-10-23T14:27:21;19.40;99.90
16174;DHT22;14031;50.158;8.626;2022-10-23T14:29:48;19.50;99.90
16174;DHT22;14031;50.158;8.626;2022-10-23T14:32:19;19.40;99.90
16174;DHT22;14031;50.158;8.626;2022-10-23T14:34:50;19.40;99.90
16174;DHT22;14031;50.158;8.626;2022-10-23T14:37:20;19.40;99.90
16174;DHT22;14031;50.158;8.626;2022-10-23T14:39:47;19.30;99.90
16174;DHT22;14031;50.158;8.626;2022-10-23T14:42:14;19.20;99.90
16174;DHT22;14031;50.158;8.626;2022-10-23T14:44:43;19.30;99.90
16174;DHT22;14031;50.158;8.626;2022-10-23T14:47:09;19.20;99.90
16174;DHT22;14031;50.158;8.626;2022-10-23T14:49:36;19.10;99.90
16174;DHT22;14031;50.158;8.626;2022-10-23T14:52:06;19.10;99.90
16174;DHT22;14031;50.158;8.626;2022-10-23T14:54:33;19.00;99.90
16174;DHT22;14031;50.158;8.626;2022-10-23T14:57:01;18.90;99.90
16174;DHT22;14031;50.158;8.626;2022-10-23T14:59:27;18.90;99.90
16174;DHT22;14031;50.158;8.626;2022-10-23T15:01:58;18.80;99.90
16174;DHT22;14031;50.158;8.626;2022-10-23T15:04:28;18.80;99.90
16174;DHT22;14031;50.158;8.626;2022-10-23T15:06:54;18.80;99.90
16174;DHT22;14031;50.158;8.626;2022-10-23T15:09:21;18.70;99.90
16174;DHT22;14031;50.158;8.626;2022-10-23T15:11:49;18.60;99.90
16174;DHT22;14031;50.158;8.626;2022-10-23T15:14:16;18.70;99.90
16174;DHT22;14031;50.158;8.626;2022-10-23T15:16:43;18.60;99.90
16174;DHT22;14031;50.158;8.626;2022-10-23T15:19:13;18.50;99.90
16174;DHT22;14031;50.158;8.626;2022-10-23T15:21:40;18.50;99.90
16174;DHT22;14031;50.158;8.626;2022-10-23T15:24:07;18.40;99.90
16174;DHT22;14031;50.158;8.626;2022-10-23T15:26:34;18.40;99.90
16174;DHT22;14031;50.158;8.626;2022-10-23T15:29:02;18.40;99.90
16174;DHT22;14031;50.158;8.626;2022-10-23T15:31:40;18.40;99.90
16174;DHT22;14031;50.158;8.626;2022-10-23T15:34:08;18.40;99.90
16174;DHT22;14031;50.158;8.626;2022-10-23T15:36:37;18.30;99.90
16174;DHT22;14031;50.158;8.626;2022-10-23T15:39:06;18.30;99.90
16174;DHT22;14031;50.158;8.626;2022-10-23T15:41:35;18.20;99.90
16174;DHT22;14031;50.158;8.626;2022-10-23T15:44:03;18.20;99.90
16174;DHT22;14031;50.158;8.626;2022-10-23T15:46:31;18.10;99.90
16174;DHT22;14031;50.158;8.626;2022-10-23T15:48:58;18.10;99.90
16174;DHT22;14031;50.158;8.626;2022-10-23T15:51:25;18.10;99.90
16174;DHT22;14031;50.158;8.626;2022-10-23T15:53:53;18.20;99.90
16174;DHT22;14031;50.158;8.626;2022-10-23T15:56:21;17.90;99.90
16174;DHT22;14031;50.158;8.626;2022-10-23T15:58:48;17.90;99.90